sensor_id;sensor_type;location;lat;lon;timestamp;P1;durP1;ratioP1;P2;durP2;ratioP2
78346;SDS011;67803;41.330;69.282;2023-04-01T00:00:17;39.75;;;21.00;;
78346;SDS011;67803;41.330;69.282;2023-04-01T00:02:48;41.70;;;22.42;;
78346;SDS011;67803;41.330;69.282;2023-04-01T00:05:19;39.15;;;21.65;;
78346;SDS011;67803;41.330;69.282;2023-04-01T00:07:50;40.67;;;19.45;;
78346;SDS011;67803;41.330;69.282;2023-04-01T00:10:21;36.42;;;21.00;;
78346;SDS011;67803;41.330;69.282;2023-04-01T00:12:51;38.40;;;20.65;;
78346;SDS011;67803;41.330;69.282;2023-04-01T00:15:22;39.78;;;22.35;;
78346;SDS011;67803;41.330;69.282;2023-04-01T00:17:52;38.70;;;21.25;;
78346;SDS011;67803;41.330;69.282;2023-04-01T00:20:24;46.10;;;21.23;;
78346;SDS011;67803;41.330;69.282;2023-04-01T00:22:55;35.63;;;21.63;;
78346;SDS011;67803;41.330;69.282;2023-04-01T00:25:26;38.10;;;20.42;;
78346;SDS011;67803;41.330;69.282;2023-04-01T00:27:56;36.42;;;21.48;;
78346;SDS011;67803;41.330;69.282;2023-04-01T00:30:27;39.75;;;20.88;;
78346;SDS011;67803;41.330;69.282;2023-04-01T00:32:57;40.58;;;21.42;;
78346;SDS011;67803;41.330;69.282;2023-04-01T00:35:28;40.78;;;22.20;;
78346;SDS011;67803;41.330;69.282;2023-04-01T00:37:59;43.00;;;21.17;;
78346;SDS011;67803;41.330;69.282;2023-04-01T00:40:31;36.72;;;20.27;;
78346;SDS011;67803;41.330;69.282;2023-04-01T00:43:02;36.65;;;20.55;;
78346;SDS011;67803;41.330;69.282;2023-04-01T00:45:35;36.00;;;21.58;;
78346;SDS011;67803;41.330;69.282;2023-04-01T00:48:07;37.22;;;20.33;;
78346;SDS011;67803;41.330;69.282;2023-04-01T00:50:39;37.70;;;20.55;;
78346;SDS011;67803;41.330;69.282;2023-04-01T00:53:10;34.70;;;19.80;;
78346;SDS011;67803;41.330;69.282;2023-04-01T00:55:43;36.42;;;20.70;;
78346;SDS011;67803;41.330;69.282;2023-04-01T00:58:16;36.10;;;20.95;;
78346;SDS011;67803;41.330;69.282;2023-04-01T01:00:48;33.13;;;18.92;;
78346;SDS011;67803;41.330;69.282;2023-04-01T01:03:20;29.63;;;17.05;;
78346;SDS011;67803;41.330;69.282;2023-04-01T01:08:45;24.40;;;15.70;;
78346;SDS011;67803;41.330;69.282;2023-04-01T01:16:39;26.15;;;13.85;;
78346;SDS011;67803;41.330;69.282;2023-04-01T01:22:07;24.85;;;13.52;;
78346;SDS011;67803;41.330;69.282;2023-04-01T01:27:27;24.95;;;13.55;;
78346;SDS011;67803;41.330;69.282;2023-04-01T01:35:38;23.65;;;13.38;;
78346;SDS011;67803;41.330;69.282;2023-04-01T01:38:11;23.60;;;13.68;;
78346;SDS011;67803;41.330;69.282;2023-04-01T01:40:44;25.30;;;13.68;;
78346;SDS011;67803;41.330;69.282;2023-04-01T01:43:16;26.00;;;15.05;;
78346;SDS011;67803;41.330;69.282;2023-04-01T01:45:48;31.90;;;14.52;;
78346;SDS011;67803;41.330;69.282;2023-04-01T01:48:20;31.48;;;15.82;;
78346;SDS011;67803;41.330;69.282;2023-04-01T01:50:52;29.67;;;15.75;;
78346;SDS011;67803;41.330;69.282;2023-04-01T01:53:23;25.27;;;14.50;;
78346;SDS011;67803;41.330;69.282;2023-04-01T01:55:53;32.40;;;16.48;;
78346;SDS011;67803;41.330;69.282;2023-04-01T01:58:25;33.47;;;17.90;;
78346;SDS011;67803;41.330;69.282;2023-04-01T02:01:01;28.40;;;16.58;;
78346;SDS011;67803;41.330;69.282;2023-04-01T02:03:33;30.88;;;17.27;;
78346;SDS011;67803;41.330;69.282;2023-04-01T02:06:06;33.70;;;19.25;;
78346;SDS011;67803;41.330;69.282;2023-04-01T02:08:44;40.95;;;19.50;;
78346;SDS011;67803;41.330;69.282;2023-04-01T02:11:16;40.70;;;21.30;;
78346;SDS011;67803;41.330;69.282;2023-04-01T02:14:12;40.47;;;19.95;;
78346;SDS011;67803;41.330;69.282;2023-04-01T02:16:45;35.75;;;20.08;;
78346;SDS011;67803;41.330;69.282;2023-04-01T02:19:17;44.88;;;20.95;;
78346;SDS011;67803;41.330;69.282;2023-04-01T02:21:53;43.88;;;20.77;;
78346;SDS011;67803;41.330;69.282;2023-04-01T02:24:26;39.45;;;21.33;;
78346;SDS011;67803;41.330;69.282;2023-04-01T02:26:57;37.30;;;22.90;;
78346;SDS011;67803;41.330;69.282;2023-04-01T02:29:27;41.22;;;23.27;;
78346;SDS011;67803;41.330;69.282;2023-04-01T02:31:58;41.95;;;23.20;;
78346;SDS011;67803;41.330;69.282;2023-04-01T02:34:29;38.28;;;23.08;;
78346;SDS011;67803;41.330;69.282;2023-04-01T02:37:00;42.25;;;23.98;;
78346;SDS011;67803;41.330;69.282;2023-04-01T02:39:31;39.03;;;22.75;;
78346;SDS011;67803;41.330;69.282;2023-04-01T02:42:01;49.15;;;23.45;;
78346;SDS011;67803;41.330;69.282;2023-04-01T02:44:32;43.47;;;24.83;;
78346;SDS011;67803;41.330;69.282;2023-04-01T02:47:02;45.08;;;24.77;;
78346;SDS011;67803;41.330;69.282;2023-04-01T02:49:33;38.38;;;24.17;;
78346;SDS011;67803;41.330;69.282;2023-04-01T02:52:04;45.33;;;25.08;;
78346;SDS011;67803;41.330;69.282;2023-04-01T02:54:34;41.50;;;22.95;;
78346;SDS011;67803;41.330;69.282;2023-04-01T02:57:05;43.85;;;25.33;;
78346;SDS011;67803;41.330;69.282;2023-04-01T02:59:35;40.83;;;24.98;;
78346;SDS011;67803;41.330;69.282;2023-04-01T03:02:06;38.55;;;25.77;;
78346;SDS011;67803;41.330;69.282;2023-04-01T03:04:36;42.92;;;25.98;;
78346;SDS011;67803;41.330;69.282;2023-04-01T03:07:07;44.53;;;25.90;;
78346;SDS011;67803;41.330;69.282;2023-04-01T03:09:40;45.67;;;25.63;;
78346;SDS011;67803;41.330;69.282;2023-04-01T03:12:10;48.13;;;25.27;;
78346;SDS011;67803;41.330;69.282;2023-04-01T03:14:41;39.25;;;24.63;;
78346;SDS011;67803;41.330;69.282;2023-04-01T03:17:13;41.53;;;24.60;;
78346;SDS011;67803;41.330;69.282;2023-04-01T03:19:44;48.90;;;26.25;;
78346;SDS011;67803;41.330;69.282;2023-04-01T03:22:14;41.00;;;24.58;;
78346;SDS011;67803;41.330;69.282;2023-04-01T03:24:45;41.45;;;25.50;;
78346;SDS011;67803;41.330;69.282;2023-04-01T03:27:16;39.72;;;24.58;;
78346;SDS011;67803;41.330;69.282;2023-04-01T03:29:46;46.78;;;24.85;;
78346;SDS011;67803;41.330;69.282;2023-04-01T03:32:17;39.65;;;23.67;;
78346;SDS011;67803;41.330;69.282;2023-04-01T03:34:47;37.95;;;22.73;;
78346;SDS011;67803;41.330;69.282;2023-04-01T03:37:18;42.78;;;24.15;;
78346;SDS011;67803;41.330;69.282;2023-04-01T03:39:49;46.90;;;23.20;;
78346;SDS011;67803;41.330;69.282;2023-04-01T03:42:19;41.08;;;25.00;;
78346;SDS011;67803;41.330;69.282;2023-04-01T03:44:50;39.92;;;24.85;;
78346;SDS011;67803;41.330;69.282;2023-04-01T03:47:20;35.25;;;24.60;;
78346;SDS011;67803;41.330;69.282;2023-04-01T03:49:51;41.40;;;24.85;;
78346;SDS011;67803;41.330;69.282;2023-04-01T03:52:22;37.60;;;23.85;;
78346;SDS011;67803;41.330;69.282;2023-04-01T03:54:52;40.08;;;24.25;;
78346;SDS011;67803;41.330;69.282;2023-04-01T03:57:23;39.70;;;23.80;;
78346;SDS011;67803;41.330;69.282;2023-04-01T03:59:53;40.17;;;23.70;;
78346;SDS011;67803;41.330;69.282;2023-04-01T04:02:24;40.95;;;23.05;;
78346;SDS011;67803;41.330;69.282;2023-04-01T04:04:55;41.42;;;23.83;;
78346;SDS011;67803;41.330;69.282;2023-04-01T04:07:25;41.17;;;25.10;;
78346;SDS011;67803;41.330;69.282;2023-04-01T04:09:56;46.65;;;24.80;;
78346;SDS011;67803;41.330;69.282;2023-04-01T04:12:26;43.45;;;24.70;;
78346;SDS011;67803;41.330;69.282;2023-04-01T04:14:57;45.95;;;25.90;;
78346;SDS011;67803;41.330;69.282;2023-04-01T04:17:27;42.78;;;25.58;;
78346;SDS011;67803;41.330;69.282;2023-04-01T04:19:58;42.72;;;23.23;;
78346;SDS011;67803;41.330;69.282;2023-04-01T04:22:28;47.47;;;23.42;;
78346;SDS011;67803;41.330;69.282;2023-04-01T04:24:59;38.35;;;21.98;;
78346;SDS011;67803;41.330;69.282;2023-04-01T04:27:29;48.38;;;24.45;;
78346;SDS011;67803;41.330;69.282;2023-04-01T04:30:00;45.63;;;24.65;;
78346;SDS011;67803;41.330;69.282;2023-04-01T04:32:31;44.05;;;23.73;;
78346;SDS011;67803;41.330;69.282;2023-04-01T04:35:01;40.63;;;22.40;;
78346;SDS011;67803;41.330;69.282;2023-04-01T04:37:32;42.53;;;23.63;;
78346;SDS011;67803;41.330;69.282;2023-04-01T04:40:02;46.35;;;22.75;;
78346;SDS011;67803;41.330;69.282;2023-04-01T04:42:33;41.30;;;23.70;;
78346;SDS011;67803;41.330;69.282;2023-04-01T04:45:04;40.33;;;23.45;;
78346;SDS011;67803;41.330;69.282;2023-04-01T04:47:34;40.60;;;24.13;;
78346;SDS011;67803;41.330;69.282;2023-04-01T04:50:05;39.53;;;22.88;;
78346;SDS011;67803;41.330;69.282;2023-04-01T04:52:36;40.70;;;23.05;;
78346;SDS011;67803;41.330;69.282;2023-04-01T04:55:07;41.90;;;23.73;;
78346;SDS011;67803;41.330;69.282;2023-04-01T04:57:37;41.22;;;23.90;;
78346;SDS011;67803;41.330;69.282;2023-04-01T05:00:08;42.97;;;23.85;;
78346;SDS011;67803;41.330;69.282;2023-04-01T05:02:40;37.50;;;22.67;;
78346;SDS011;67803;41.330;69.282;2023-04-01T05:05:10;44.38;;;23.35;;
78346;SDS011;67803;41.330;69.282;2023-04-01T05:07:41;37.72;;;21.90;;
78346;SDS011;67803;41.330;69.282;2023-04-01T05:10:12;39.30;;;22.25;;
78346;SDS011;67803;41.330;69.282;2023-04-01T05:12:42;37.00;;;22.70;;
78346;SDS011;67803;41.330;69.282;2023-04-01T05:15:13;37.72;;;20.60;;
78346;SDS011;67803;41.330;69.282;2023-04-01T05:17:44;38.30;;;22.23;;
78346;SDS011;67803;41.330;69.282;2023-04-01T05:20:14;34.95;;;19.30;;
78346;SDS011;67803;41.330;69.282;2023-04-01T05:22:45;42.80;;;20.83;;
78346;SDS011;67803;41.330;69.282;2023-04-01T05:25:16;40.53;;;22.55;;
78346;SDS011;67803;41.330;69.282;2023-04-01T05:27:46;33.95;;;20.60;;
78346;SDS011;67803;41.330;69.282;2023-04-01T05:30:17;36.03;;;22.20;;
78346;SDS011;67803;41.330;69.282;2023-04-01T05:32:47;35.38;;;20.35;;
78346;SDS011;67803;41.330;69.282;2023-04-01T05:35:18;34.17;;;20.33;;
78346;SDS011;67803;41.330;69.282;2023-04-01T05:37:48;36.85;;;21.77;;
78346;SDS011;67803;41.330;69.282;2023-04-01T05:40:19;43.38;;;21.52;;
78346;SDS011;67803;41.330;69.282;2023-04-01T05:42:50;39.35;;;21.10;;
78346;SDS011;67803;41.330;69.282;2023-04-01T05:45:21;29.27;;;19.45;;
78346;SDS011;67803;41.330;69.282;2023-04-01T05:47:51;32.65;;;18.75;;
78346;SDS011;67803;41.330;69.282;2023-04-01T05:50:22;35.63;;;19.08;;
78346;SDS011;67803;41.330;69.282;2023-04-01T05:52:52;36.40;;;18.90;;
78346;SDS011;67803;41.330;69.282;2023-04-01T05:55:23;32.50;;;19.67;;
78346;SDS011;67803;41.330;69.282;2023-04-01T05:57:54;31.23;;;19.05;;
78346;SDS011;67803;41.330;69.282;2023-04-01T06:00:24;32.25;;;17.25;;
78346;SDS011;67803;41.330;69.282;2023-04-01T06:02:57;35.88;;;18.70;;
78346;SDS011;67803;41.330;69.282;2023-04-01T06:05:29;37.92;;;19.73;;
78346;SDS011;67803;41.330;69.282;2023-04-01T06:08:06;58.65;;;19.83;;
78346;SDS011;67803;41.330;69.282;2023-04-01T06:16:24;37.45;;;17.73;;
78346;SDS011;67803;41.330;69.282;2023-04-01T06:51:51;40.45;;;19.08;;
78346;SDS011;67803;41.330;69.282;2023-04-01T06:56:25;47.60;;;19.80;;
78346;SDS011;67803;41.330;69.282;2023-04-01T06:59:02;37.47;;;18.45;;
78346;SDS011;67803;41.330;69.282;2023-04-01T07:01:46;46.80;;;19.33;;
78346;SDS011;67803;41.330;69.282;2023-04-01T07:04:26;36.65;;;17.08;;
78346;SDS011;67803;41.330;69.282;2023-04-01T07:07:02;34.30;;;18.27;;
78346;SDS011;67803;41.330;69.282;2023-04-01T07:09:35;31.70;;;14.75;;
78346;SDS011;67803;41.330;69.282;2023-04-01T07:14:50;41.58;;;18.15;;
78346;SDS011;67803;41.330;69.282;2023-04-01T07:22:31;42.22;;;18.90;;
78346;SDS011;67803;41.330;69.282;2023-04-01T07:25:19;37.92;;;17.52;;
78346;SDS011;67803;41.330;69.282;2023-04-01T07:27:52;40.97;;;18.38;;
78346;SDS011;67803;41.330;69.282;2023-04-01T07:30:23;40.95;;;16.48;;
78346;SDS011;67803;41.330;69.282;2023-04-01T07:32:56;28.08;;;14.43;;
78346;SDS011;67803;41.330;69.282;2023-04-01T07:35:36;26.73;;;14.35;;
78346;SDS011;67803;41.330;69.282;2023-04-01T07:40:46;28.65;;;13.65;;
78346;SDS011;67803;41.330;69.282;2023-04-01T07:43:21;39.63;;;17.38;;
78346;SDS011;67803;41.330;69.282;2023-04-01T07:46:12;32.53;;;15.90;;
78346;SDS011;67803;41.330;69.282;2023-04-01T07:48:50;42.60;;;19.05;;
78346;SDS011;67803;41.330;69.282;2023-04-01T07:54:21;34.55;;;15.40;;
78346;SDS011;67803;41.330;69.282;2023-04-01T08:07:30;30.77;;;13.85;;
78346;SDS011;67803;41.330;69.282;2023-04-01T08:21:04;22.90;;;12.38;;
78346;SDS011;67803;41.330;69.282;2023-04-01T08:23:37;27.00;;;13.02;;
78346;SDS011;67803;41.330;69.282;2023-04-01T08:26:55;23.58;;;12.73;;
78346;SDS011;67803;41.330;69.282;2023-04-01T08:29:08;25.63;;;12.63;;
78346;SDS011;67803;41.330;69.282;2023-04-01T08:34:33;27.10;;;12.57;;
78346;SDS011;67803;41.330;69.282;2023-04-01T08:37:05;24.30;;;12.80;;
78346;SDS011;67803;41.330;69.282;2023-04-01T08:39:38;24.33;;;13.50;;
78346;SDS011;67803;41.330;69.282;2023-04-01T08:42:18;29.70;;;14.95;;
78346;SDS011;67803;41.330;69.282;2023-04-01T08:45:09;32.33;;;14.38;;
78346;SDS011;67803;41.330;69.282;2023-04-01T08:48:04;21.98;;;13.25;;
78346;SDS011;67803;41.330;69.282;2023-04-01T08:53:21;28.02;;;16.50;;
78346;SDS011;67803;41.330;69.282;2023-04-01T09:03:41;38.72;;;23.15;;
78346;SDS011;67803;41.330;69.282;2023-04-01T09:06:23;35.72;;;20.35;;
78346;SDS011;67803;41.330;69.282;2023-04-01T09:17:00;32.55;;;15.10;;
78346;SDS011;67803;41.330;69.282;2023-04-01T09:25:36;34.20;;;12.23;;
78346;SDS011;67803;41.330;69.282;2023-04-01T09:31:07;19.10;;;11.30;;
78346;SDS011;67803;41.330;69.282;2023-04-01T09:36:21;19.13;;;11.13;;
78346;SDS011;67803;41.330;69.282;2023-04-01T09:39:37;21.80;;;11.10;;
78346;SDS011;67803;41.330;69.282;2023-04-01T09:47:55;25.70;;;12.57;;
78346;SDS011;67803;41.330;69.282;2023-04-01T09:50:17;26.10;;;12.52;;
78346;SDS011;67803;41.330;69.282;2023-04-01T10:06:37;32.58;;;11.20;;
78346;SDS011;67803;41.330;69.282;2023-04-01T10:09:30;20.02;;;11.90;;
78346;SDS011;67803;41.330;69.282;2023-04-01T10:23:20;23.67;;;9.88;;
78346;SDS011;67803;41.330;69.282;2023-04-01T10:41:31;18.65;;;8.93;;
78346;SDS011;67803;41.330;69.282;2023-04-01T11:00:05;20.15;;;9.38;;
78346;SDS011;67803;41.330;69.282;2023-04-01T11:05:35;16.38;;;8.32;;
78346;SDS011;67803;41.330;69.282;2023-04-01T11:08:32;16.00;;;8.70;;
78346;SDS011;67803;41.330;69.282;2023-04-01T11:30:17;23.92;;;11.68;;
78346;SDS011;67803;41.330;69.282;2023-04-01T11:35:47;28.90;;;8.00;;
78346;SDS011;67803;41.330;69.282;2023-04-01T11:46:25;14.20;;;7.70;;
78346;SDS011;67803;41.330;69.282;2023-04-01T11:51:47;25.60;;;14.07;;
78346;SDS011;67803;41.330;69.282;2023-04-01T11:54:30;15.30;;;7.30;;
78346;SDS011;67803;41.330;69.282;2023-04-01T12:12:59;13.93;;;7.00;;
78346;SDS011;67803;41.330;69.282;2023-04-01T12:18:31;23.77;;;8.80;;
78346;SDS011;67803;41.330;69.282;2023-04-01T12:26:30;14.55;;;7.68;;
78346;SDS011;67803;41.330;69.282;2023-04-01T12:40:28;12.30;;;6.43;;
78346;SDS011;67803;41.330;69.282;2023-04-01T12:53:56;16.70;;;7.25;;
78346;SDS011;67803;41.330;69.282;2023-04-01T12:56:44;11.27;;;6.90;;
78346;SDS011;67803;41.330;69.282;2023-04-01T12:59:26;17.92;;;7.22;;
78346;SDS011;67803;41.330;69.282;2023-04-01T13:09:45;20.52;;;8.02;;
78346;SDS011;67803;41.330;69.282;2023-04-01T13:14:57;20.17;;;7.93;;
78346;SDS011;67803;41.330;69.282;2023-04-01T13:20:16;14.38;;;8.30;;
78346;SDS011;67803;41.330;69.282;2023-04-01T13:30:38;17.42;;;9.27;;
78346;SDS011;67803;41.330;69.282;2023-04-01T13:33:14;17.88;;;8.00;;
78346;SDS011;67803;41.330;69.282;2023-04-01T13:35:50;18.15;;;8.32;;
78346;SDS011;67803;41.330;69.282;2023-04-01T13:41:06;23.52;;;9.02;;
78346;SDS011;67803;41.330;69.282;2023-04-01T13:43:48;22.73;;;9.05;;
78346;SDS011;67803;41.330;69.282;2023-04-01T14:08:10;33.20;;;16.33;;
78346;SDS011;67803;41.330;69.282;2023-04-01T14:16:26;29.25;;;14.80;;
78346;SDS011;67803;41.330;69.282;2023-04-01T14:19:11;29.80;;;14.38;;
78346;SDS011;67803;41.330;69.282;2023-04-01T14:37:43;41.03;;;19.92;;
78346;SDS011;67803;41.330;69.282;2023-04-01T14:40:26;40.40;;;18.92;;
78346;SDS011;67803;41.330;69.282;2023-04-01T14:48:32;33.22;;;17.23;;
78346;SDS011;67803;41.330;69.282;2023-04-01T14:51:09;34.63;;;17.25;;
78346;SDS011;67803;41.330;69.282;2023-04-01T14:53:41;35.10;;;16.65;;
78346;SDS011;67803;41.330;69.282;2023-04-01T14:56:16;39.88;;;18.10;;
78346;SDS011;67803;41.330;69.282;2023-04-01T14:59:38;31.95;;;18.80;;
78346;SDS011;67803;41.330;69.282;2023-04-01T15:04:43;43.80;;;18.90;;
78346;SDS011;67803;41.330;69.282;2023-04-01T15:07:31;34.67;;;20.83;;
78346;SDS011;67803;41.330;69.282;2023-04-01T15:13:25;38.13;;;21.40;;
78346;SDS011;67803;41.330;69.282;2023-04-01T15:15:39;37.60;;;20.27;;
78346;SDS011;67803;41.330;69.282;2023-04-01T15:37:55;36.55;;;17.58;;
78346;SDS011;67803;41.330;69.282;2023-04-01T15:40:27;36.08;;;18.08;;
78346;SDS011;67803;41.330;69.282;2023-04-01T15:43:05;44.13;;;19.27;;
78346;SDS011;67803;41.330;69.282;2023-04-01T15:46:18;36.28;;;18.48;;
78346;SDS011;67803;41.330;69.282;2023-04-01T15:57:03;46.55;;;19.80;;
78346;SDS011;67803;41.330;69.282;2023-04-01T16:05:27;34.80;;;18.02;;
78346;SDS011;67803;41.330;69.282;2023-04-01T16:10:59;44.60;;;19.30;;
78346;SDS011;67803;41.330;69.282;2023-04-01T16:13:51;51.90;;;23.17;;
78346;SDS011;67803;41.330;69.282;2023-04-01T16:16:30;37.53;;;17.58;;
78346;SDS011;67803;41.330;69.282;2023-04-01T16:19:08;40.08;;;17.58;;
78346;SDS011;67803;41.330;69.282;2023-04-01T16:24:24;40.70;;;18.08;;
78346;SDS011;67803;41.330;69.282;2023-04-01T16:32:37;39.72;;;17.63;;
78346;SDS011;67803;41.330;69.282;2023-04-01T16:37:49;41.70;;;17.08;;
78346;SDS011;67803;41.330;69.282;2023-04-01T16:45:43;46.08;;;17.48;;
78346;SDS011;67803;41.330;69.282;2023-04-01T16:48:18;42.78;;;17.45;;
78346;SDS011;67803;41.330;69.282;2023-04-01T16:51:03;37.80;;;18.50;;
78346;SDS011;67803;41.330;69.282;2023-04-01T16:53:42;41.60;;;16.92;;
78346;SDS011;67803;41.330;69.282;2023-04-01T16:56:16;35.75;;;16.30;;
78346;SDS011;67803;41.330;69.282;2023-04-01T17:01:44;39.45;;;16.35;;
78346;SDS011;67803;41.330;69.282;2023-04-01T17:07:03;44.47;;;17.63;;
78346;SDS011;67803;41.330;69.282;2023-04-01T17:12:19;37.47;;;17.95;;
78346;SDS011;67803;41.330;69.282;2023-04-01T17:15:11;37.92;;;17.92;;
78346;SDS011;67803;41.330;69.282;2023-04-01T17:17:51;41.95;;;16.73;;
78346;SDS011;67803;41.330;69.282;2023-04-01T17:23:12;34.53;;;15.70;;
78346;SDS011;67803;41.330;69.282;2023-04-01T17:25:47;38.90;;;16.92;;
78346;SDS011;67803;41.330;69.282;2023-04-01T17:41:38;35.92;;;16.63;;
78346;SDS011;67803;41.330;69.282;2023-04-01T17:49:39;38.22;;;20.90;;
78346;SDS011;67803;41.330;69.282;2023-04-01T17:57:46;39.08;;;17.92;;
78346;SDS011;67803;41.330;69.282;2023-04-01T18:00:21;41.58;;;18.25;;
78346;SDS011;67803;41.330;69.282;2023-04-01T18:05:26;43.17;;;18.55;;
78346;SDS011;67803;41.330;69.282;2023-04-01T18:08:00;42.30;;;18.55;;
78346;SDS011;67803;41.330;69.282;2023-04-01T18:21:41;42.00;;;18.13;;
78346;SDS011;67803;41.330;69.282;2023-04-01T18:24:18;47.60;;;19.05;;
78346;SDS011;67803;41.330;69.282;2023-04-01T18:32:13;49.17;;;21.48;;
78346;SDS011;67803;41.330;69.282;2023-04-01T18:37:17;51.78;;;20.70;;
78346;SDS011;67803;41.330;69.282;2023-04-01T18:39:53;44.53;;;19.92;;
78346;SDS011;67803;41.330;69.282;2023-04-01T18:42:33;49.78;;;21.13;;
78346;SDS011;67803;41.330;69.282;2023-04-01T18:45:10;48.80;;;20.30;;
78346;SDS011;67803;41.330;69.282;2023-04-01T18:47:47;55.55;;;21.20;;
78346;SDS011;67803;41.330;69.282;2023-04-01T18:55:40;51.50;;;20.33;;
78346;SDS011;67803;41.330;69.282;2023-04-01T19:01:13;46.47;;;22.15;;
78346;SDS011;67803;41.330;69.282;2023-04-01T19:04:05;41.28;;;21.83;;
78346;SDS011;67803;41.330;69.282;2023-04-01T19:06:50;53.67;;;22.13;;
78346;SDS011;67803;41.330;69.282;2023-04-01T19:19:55;54.25;;;23.60;;
78346;SDS011;67803;41.330;69.282;2023-04-01T19:22:42;51.55;;;23.17;;
78346;SDS011;67803;41.330;69.282;2023-04-01T19:28:07;46.33;;;23.83;;
78346;SDS011;67803;41.330;69.282;2023-04-01T19:39:04;45.13;;;23.90;;
78346;SDS011;67803;41.330;69.282;2023-04-01T19:41:51;40.65;;;21.65;;
78346;SDS011;67803;41.330;69.282;2023-04-01T19:49:59;41.22;;;23.15;;
78346;SDS011;67803;41.330;69.282;2023-04-01T19:55:07;36.77;;;21.10;;
78346;SDS011;67803;41.330;69.282;2023-04-01T19:57:47;43.15;;;22.95;;
78346;SDS011;67803;41.330;69.282;2023-04-01T20:11:08;38.03;;;21.88;;
78346;SDS011;67803;41.330;69.282;2023-04-01T20:19:41;38.30;;;22.40;;
78346;SDS011;67803;41.330;69.282;2023-04-01T20:28:09;44.45;;;26.85;;
78346;SDS011;67803;41.330;69.282;2023-04-01T20:33:37;41.95;;;21.60;;
78346;SDS011;67803;41.330;69.282;2023-04-01T20:36:21;45.03;;;21.55;;
78346;SDS011;67803;41.330;69.282;2023-04-01T20:49:41;42.38;;;22.05;;
78346;SDS011;67803;41.330;69.282;2023-04-01T21:13:54;36.88;;;22.10;;
78346;SDS011;67803;41.330;69.282;2023-04-01T21:22:07;37.55;;;21.10;;
78346;SDS011;67803;41.330;69.282;2023-04-01T21:30:14;38.17;;;21.20;;
78346;SDS011;67803;41.330;69.282;2023-04-01T21:35:23;39.83;;;21.80;;
78346;SDS011;67803;41.330;69.282;2023-04-01T21:37:58;39.75;;;21.52;;
78346;SDS011;67803;41.330;69.282;2023-04-01T22:07:20;37.45;;;22.77;;
78346;SDS011;67803;41.330;69.282;2023-04-01T22:12:34;41.58;;;21.60;;
78346;SDS011;67803;41.330;69.282;2023-04-01T22:24:03;37.63;;;21.50;;
78346;SDS011;67803;41.330;69.282;2023-04-01T22:26:42;37.60;;;20.38;;
78346;SDS011;67803;41.330;69.282;2023-04-01T22:29:31;38.80;;;21.50;;
78346;SDS011;67803;41.330;69.282;2023-04-01T22:32:07;37.92;;;21.08;;
78346;SDS011;67803;41.330;69.282;2023-04-01T22:37:18;36.47;;;20.60;;
78346;SDS011;67803;41.330;69.282;2023-04-01T22:39:53;33.83;;;20.98;;
78346;SDS011;67803;41.330;69.282;2023-04-01T22:42:44;35.78;;;20.55;;
78346;SDS011;67803;41.330;69.282;2023-04-01T22:45:21;34.47;;;22.23;;
78346;SDS011;67803;41.330;69.282;2023-04-01T22:48:09;33.88;;;21.75;;
78346;SDS011;67803;41.330;69.282;2023-04-01T22:50:59;36.85;;;22.83;;
78346;SDS011;67803;41.330;69.282;2023-04-01T22:56:05;37.83;;;22.17;;
78346;SDS011;67803;41.330;69.282;2023-04-01T22:59:00;32.33;;;20.10;;
78346;SDS011;67803;41.330;69.282;2023-04-01T23:01:29;33.70;;;20.58;;
78346;SDS011;67803;41.330;69.282;2023-04-01T23:04:00;36.30;;;20.83;;
78346;SDS011;67803;41.330;69.282;2023-04-01T23:06:41;37.03;;;20.27;;
78346;SDS011;67803;41.330;69.282;2023-04-01T23:11:54;32.83;;;19.42;;
78346;SDS011;67803;41.330;69.282;2023-04-01T23:24:55;35.08;;;20.65;;
78346;SDS011;67803;41.330;69.282;2023-04-01T23:27:30;35.35;;;21.85;;
78346;SDS011;67803;41.330;69.282;2023-04-01T23:30:11;35.40;;;21.00;;
78346;SDS011;67803;41.330;69.282;2023-04-01T23:32:54;41.13;;;21.67;;
78346;SDS011;67803;41.330;69.282;2023-04-01T23:35:25;35.45;;;21.88;;
78346;SDS011;67803;41.330;69.282;2023-04-01T23:37:56;35.78;;;21.88;;
78346;SDS011;67803;41.330;69.282;2023-04-01T23:40:26;36.70;;;22.38;;
78346;SDS011;67803;41.330;69.282;2023-04-01T23:42:57;40.88;;;22.33;;
78346;SDS011;67803;41.330;69.282;2023-04-01T23:45:28;42.50;;;23.08;;
78346;SDS011;67803;41.330;69.282;2023-04-01T23:47:58;38.72;;;22.80;;
78346;SDS011;67803;41.330;69.282;2023-04-01T23:50:29;37.65;;;21.92;;
78346;SDS011;67803;41.330;69.282;2023-04-01T23:53:02;40.30;;;24.17;;
78346;SDS011;67803;41.330;69.282;2023-04-01T23:55:33;40.10;;;23.55;;
78346;SDS011;67803;41.330;69.282;2023-04-01T23:58:12;35.55;;;21.98;;
